sensor_id;sensor_type;location;lat;lon;timestamp;P1;durP1;ratioP1;P2;durP2;ratioP2
76818;SDS011;65772;51.096;17.006;2023-04-10T00:02:21;42.50;;;24.30;;
76818;SDS011;65772;51.096;17.006;2023-04-10T00:04:52;42.10;;;24.60;;
76818;SDS011;65772;51.096;17.006;2023-04-10T00:07:23;45.50;;;26.60;;
76818;SDS011;65772;51.096;17.006;2023-04-10T00:09:54;46.70;;;26.40;;
76818;SDS011;65772;51.096;17.006;2023-04-10T00:12:24;44.70;;;25.50;;
76818;SDS011;65772;51.096;17.006;2023-04-10T00:14:55;48.90;;;26.00;;
76818;SDS011;65772;51.096;17.006;2023-04-10T00:17:26;49.70;;;27.70;;
76818;SDS011;65772;51.096;17.006;2023-04-10T00:19:56;46.50;;;27.10;;
76818;SDS011;65772;51.096;17.006;2023-04-10T00:22:27;49.80;;;27.90;;
76818;SDS011;65772;51.096;17.006;2023-04-10T00:24:58;52.50;;;29.50;;
76818;SDS011;65772;51.096;17.006;2023-04-10T00:27:28;49.90;;;28.10;;
76818;SDS011;65772;51.096;17.006;2023-04-10T00:29:59;49.90;;;27.30;;
76818;SDS011;65772;51.096;17.006;2023-04-10T00:32:30;46.00;;;25.50;;
76818;SDS011;65772;51.096;17.006;2023-04-10T00:35:01;41.40;;;23.90;;
76818;SDS011;65772;51.096;17.006;2023-04-10T00:37:32;46.20;;;26.90;;
76818;SDS011;65772;51.096;17.006;2023-04-10T00:40:02;47.70;;;27.70;;
76818;SDS011;65772;51.096;17.006;2023-04-10T00:42:34;51.10;;;28.90;;
76818;SDS011;65772;51.096;17.006;2023-04-10T00:45:07;49.30;;;27.70;;
76818;SDS011;65772;51.096;17.006;2023-04-10T00:50:08;49.70;;;26.90;;
76818;SDS011;65772;51.096;17.006;2023-04-10T00:52:39;54.50;;;29.40;;
76818;SDS011;65772;51.096;17.006;2023-04-10T00:55:10;53.60;;;29.60;;
76818;SDS011;65772;51.096;17.006;2023-04-10T00:57:43;53.10;;;29.50;;
76818;SDS011;65772;51.096;17.006;2023-04-10T01:00:14;53.70;;;31.30;;
76818;SDS011;65772;51.096;17.006;2023-04-10T01:02:46;57.00;;;29.40;;
76818;SDS011;65772;51.096;17.006;2023-04-10T01:05:17;61.00;;;29.80;;
76818;SDS011;65772;51.096;17.006;2023-04-10T01:07:53;56.20;;;29.00;;
76818;SDS011;65772;51.096;17.006;2023-04-10T01:10:33;56.40;;;28.00;;
76818;SDS011;65772;51.096;17.006;2023-04-10T01:13:16;46.00;;;26.80;;
76818;SDS011;65772;51.096;17.006;2023-04-10T01:15:56;48.70;;;27.00;;
76818;SDS011;65772;51.096;17.006;2023-04-10T01:18:33;51.50;;;26.50;;
76818;SDS011;65772;51.096;17.006;2023-04-10T01:21:10;49.50;;;27.40;;
76818;SDS011;65772;51.096;17.006;2023-04-10T01:24:01;48.50;;;26.90;;
76818;SDS011;65772;51.096;17.006;2023-04-10T01:26:49;50.10;;;26.40;;
76818;SDS011;65772;51.096;17.006;2023-04-10T01:29:31;48.90;;;27.50;;
76818;SDS011;65772;51.096;17.006;2023-04-10T01:32:07;48.30;;;27.10;;
76818;SDS011;65772;51.096;17.006;2023-04-10T01:34:42;45.90;;;26.20;;
76818;SDS011;65772;51.096;17.006;2023-04-10T01:37:16;45.30;;;26.80;;
76818;SDS011;65772;51.096;17.006;2023-04-10T01:39:53;48.10;;;26.80;;
76818;SDS011;65772;51.096;17.006;2023-04-10T01:42:27;50.00;;;26.80;;
76818;SDS011;65772;51.096;17.006;2023-04-10T01:45:03;49.70;;;26.50;;
76818;SDS011;65772;51.096;17.006;2023-04-10T01:47:37;52.00;;;27.80;;
76818;SDS011;65772;51.096;17.006;2023-04-10T01:50:08;46.60;;;25.10;;
76818;SDS011;65772;51.096;17.006;2023-04-10T01:52:39;44.50;;;24.30;;
76818;SDS011;65772;51.096;17.006;2023-04-10T01:55:17;43.50;;;24.50;;
76818;SDS011;65772;51.096;17.006;2023-04-10T01:57:53;45.70;;;24.60;;
76818;SDS011;65772;51.096;17.006;2023-04-10T02:00:24;49.40;;;26.50;;
76818;SDS011;65772;51.096;17.006;2023-04-10T02:02:55;43.80;;;25.40;;
76818;SDS011;65772;51.096;17.006;2023-04-10T02:05:27;43.10;;;24.50;;
76818;SDS011;65772;51.096;17.006;2023-04-10T02:08:10;47.80;;;24.40;;
76818;SDS011;65772;51.096;17.006;2023-04-10T02:10:48;43.10;;;23.40;;
76818;SDS011;65772;51.096;17.006;2023-04-10T02:13:24;43.60;;;23.90;;
76818;SDS011;65772;51.096;17.006;2023-04-10T02:15:58;44.10;;;23.20;;
76818;SDS011;65772;51.096;17.006;2023-04-10T02:18:35;44.70;;;24.00;;
76818;SDS011;65772;51.096;17.006;2023-04-10T02:21:07;44.30;;;24.20;;
76818;SDS011;65772;51.096;17.006;2023-04-10T02:23:41;44.70;;;23.60;;
76818;SDS011;65772;51.096;17.006;2023-04-10T02:26:12;39.20;;;23.90;;
76818;SDS011;65772;51.096;17.006;2023-04-10T02:28:43;40.10;;;22.50;;
76818;SDS011;65772;51.096;17.006;2023-04-10T02:31:13;44.10;;;24.80;;
76818;SDS011;65772;51.096;17.006;2023-04-10T02:33:45;36.80;;;21.70;;
76818;SDS011;65772;51.096;17.006;2023-04-10T02:36:17;35.90;;;21.30;;
76818;SDS011;65772;51.096;17.006;2023-04-10T02:38:48;34.50;;;21.00;;
76818;SDS011;65772;51.096;17.006;2023-04-10T02:41:21;37.50;;;22.20;;
76818;SDS011;65772;51.096;17.006;2023-04-10T02:43:52;37.90;;;22.10;;
76818;SDS011;65772;51.096;17.006;2023-04-10T02:46:26;38.10;;;22.30;;
76818;SDS011;65772;51.096;17.006;2023-04-10T02:48:57;37.80;;;22.10;;
76818;SDS011;65772;51.096;17.006;2023-04-10T02:51:29;43.40;;;23.20;;
76818;SDS011;65772;51.096;17.006;2023-04-10T02:54:04;36.90;;;21.50;;
76818;SDS011;65772;51.096;17.006;2023-04-10T02:56:36;38.00;;;22.50;;
76818;SDS011;65772;51.096;17.006;2023-04-10T02:59:07;34.70;;;21.60;;
76818;SDS011;65772;51.096;17.006;2023-04-10T03:01:38;37.30;;;22.10;;
76818;SDS011;65772;51.096;17.006;2023-04-10T03:04:09;37.80;;;22.20;;
76818;SDS011;65772;51.096;17.006;2023-04-10T03:06:41;32.80;;;20.70;;
76818;SDS011;65772;51.096;17.006;2023-04-10T03:09:12;37.70;;;22.60;;
76818;SDS011;65772;51.096;17.006;2023-04-10T03:11:43;38.40;;;22.20;;
76818;SDS011;65772;51.096;17.006;2023-04-10T03:14:14;38.00;;;21.20;;
76818;SDS011;65772;51.096;17.006;2023-04-10T03:16:45;33.00;;;19.70;;
76818;SDS011;65772;51.096;17.006;2023-04-10T03:19:17;40.00;;;22.50;;
76818;SDS011;65772;51.096;17.006;2023-04-10T03:21:48;33.70;;;20.10;;
76818;SDS011;65772;51.096;17.006;2023-04-10T03:24:19;33.90;;;20.40;;
76818;SDS011;65772;51.096;17.006;2023-04-10T03:26:51;36.00;;;20.30;;
76818;SDS011;65772;51.096;17.006;2023-04-10T03:29:23;32.60;;;19.70;;
76818;SDS011;65772;51.096;17.006;2023-04-10T03:31:55;32.00;;;20.90;;
76818;SDS011;65772;51.096;17.006;2023-04-10T03:34:26;34.10;;;21.10;;
76818;SDS011;65772;51.096;17.006;2023-04-10T03:36:57;32.70;;;19.30;;
76818;SDS011;65772;51.096;17.006;2023-04-10T03:39:29;35.70;;;20.80;;
76818;SDS011;65772;51.096;17.006;2023-04-10T03:42:00;32.50;;;19.40;;
76818;SDS011;65772;51.096;17.006;2023-04-10T03:44:31;29.20;;;18.20;;
76818;SDS011;65772;51.096;17.006;2023-04-10T03:47:03;33.20;;;18.70;;
76818;SDS011;65772;51.096;17.006;2023-04-10T03:49:34;32.00;;;18.80;;
76818;SDS011;65772;51.096;17.006;2023-04-10T03:52:06;30.30;;;18.80;;
76818;SDS011;65772;51.096;17.006;2023-04-10T03:54:38;27.30;;;17.50;;
76818;SDS011;65772;51.096;17.006;2023-04-10T03:57:15;28.50;;;18.30;;
76818;SDS011;65772;51.096;17.006;2023-04-10T03:59:48;26.60;;;17.00;;
76818;SDS011;65772;51.096;17.006;2023-04-10T04:02:19;34.10;;;21.10;;
76818;SDS011;65772;51.096;17.006;2023-04-10T04:04:50;34.50;;;20.70;;
76818;SDS011;65772;51.096;17.006;2023-04-10T04:07:41;35.60;;;20.70;;
76818;SDS011;65772;51.096;17.006;2023-04-10T04:10:29;34.40;;;21.00;;
76818;SDS011;65772;51.096;17.006;2023-04-10T04:13:11;34.20;;;20.70;;
76818;SDS011;65772;51.096;17.006;2023-04-10T04:16:09;37.40;;;20.10;;
76818;SDS011;65772;51.096;17.006;2023-04-10T04:18:46;38.30;;;22.20;;
76818;SDS011;65772;51.096;17.006;2023-04-10T04:21:28;37.60;;;21.30;;
76818;SDS011;65772;51.096;17.006;2023-04-10T04:24:19;36.30;;;20.90;;
76818;SDS011;65772;51.096;17.006;2023-04-10T04:27:03;36.90;;;20.90;;
76818;SDS011;65772;51.096;17.006;2023-04-10T04:29:46;35.40;;;21.40;;
76818;SDS011;65772;51.096;17.006;2023-04-10T04:32:25;45.40;;;22.30;;
76818;SDS011;65772;51.096;17.006;2023-04-10T04:35:04;45.40;;;22.70;;
76818;SDS011;65772;51.096;17.006;2023-04-10T04:37:50;42.10;;;22.00;;
76818;SDS011;65772;51.096;17.006;2023-04-10T04:40:49;48.80;;;24.20;;
76818;SDS011;65772;51.096;17.006;2023-04-10T04:43:40;51.30;;;24.90;;
76818;SDS011;65772;51.096;17.006;2023-04-10T04:46:38;51.30;;;26.90;;
76818;SDS011;65772;51.096;17.006;2023-04-10T04:49:11;51.70;;;25.10;;
76818;SDS011;65772;51.096;17.006;2023-04-10T04:51:47;49.80;;;24.90;;
76818;SDS011;65772;51.096;17.006;2023-04-10T04:54:41;51.70;;;25.80;;
76818;SDS011;65772;51.096;17.006;2023-04-10T04:57:30;52.40;;;24.90;;
76818;SDS011;65772;51.096;17.006;2023-04-10T05:00:06;52.10;;;25.00;;
76818;SDS011;65772;51.096;17.006;2023-04-10T05:02:56;58.40;;;27.50;;
76818;SDS011;65772;51.096;17.006;2023-04-10T05:05:57;52.10;;;24.80;;
76818;SDS011;65772;51.096;17.006;2023-04-10T05:08:49;50.70;;;24.70;;
76818;SDS011;65772;51.096;17.006;2023-04-10T05:11:44;52.70;;;25.70;;
76818;SDS011;65772;51.096;17.006;2023-04-10T05:14:19;50.20;;;25.80;;
76818;SDS011;65772;51.096;17.006;2023-04-10T05:17:07;46.80;;;24.00;;
76818;SDS011;65772;51.096;17.006;2023-04-10T05:19:43;50.90;;;23.80;;
76818;SDS011;65772;51.096;17.006;2023-04-10T05:22:35;56.70;;;26.40;;
76818;SDS011;65772;51.096;17.006;2023-04-10T05:25:34;50.70;;;25.30;;
76818;SDS011;65772;51.096;17.006;2023-04-10T05:28:28;57.80;;;27.80;;
76818;SDS011;65772;51.096;17.006;2023-04-10T05:31:21;57.80;;;28.50;;
76818;SDS011;65772;51.096;17.006;2023-04-10T05:34:08;111.10;;;57.60;;
76818;SDS011;65772;51.096;17.006;2023-04-10T05:37:07;55.50;;;28.60;;
76818;SDS011;65772;51.096;17.006;2023-04-10T05:39:58;54.00;;;26.80;;
76818;SDS011;65772;51.096;17.006;2023-04-10T05:42:37;50.50;;;25.60;;
76818;SDS011;65772;51.096;17.006;2023-04-10T05:45:24;45.80;;;25.00;;
76818;SDS011;65772;51.096;17.006;2023-04-10T05:48:14;44.10;;;23.90;;
76818;SDS011;65772;51.096;17.006;2023-04-10T05:51:15;44.10;;;23.90;;
76818;SDS011;65772;51.096;17.006;2023-04-10T05:54:14;42.70;;;23.90;;
76818;SDS011;65772;51.096;17.006;2023-04-10T05:57:11;55.00;;;30.40;;
76818;SDS011;65772;51.096;17.006;2023-04-10T05:59:48;47.40;;;25.30;;
76818;SDS011;65772;51.096;17.006;2023-04-10T06:02:40;46.90;;;24.90;;
76818;SDS011;65772;51.096;17.006;2023-04-10T06:05:17;46.70;;;24.50;;
76818;SDS011;65772;51.096;17.006;2023-04-10T06:07:48;46.20;;;24.70;;
76818;SDS011;65772;51.096;17.006;2023-04-10T06:10:19;51.00;;;24.80;;
76818;SDS011;65772;51.096;17.006;2023-04-10T06:12:51;45.60;;;24.00;;
76818;SDS011;65772;51.096;17.006;2023-04-10T06:15:22;42.70;;;23.60;;
76818;SDS011;65772;51.096;17.006;2023-04-10T06:17:53;43.20;;;22.70;;
76818;SDS011;65772;51.096;17.006;2023-04-10T06:20:23;42.20;;;22.70;;
76818;SDS011;65772;51.096;17.006;2023-04-10T06:22:54;42.80;;;23.40;;
76818;SDS011;65772;51.096;17.006;2023-04-10T06:25:26;46.00;;;25.10;;
76818;SDS011;65772;51.096;17.006;2023-04-10T06:27:58;48.20;;;25.50;;
76818;SDS011;65772;51.096;17.006;2023-04-10T06:30:29;48.30;;;26.10;;
76818;SDS011;65772;51.096;17.006;2023-04-10T06:33:01;46.80;;;24.90;;
76818;SDS011;65772;51.096;17.006;2023-04-10T06:38:03;41.70;;;21.70;;
76818;SDS011;65772;51.096;17.006;2023-04-10T06:40:35;43.80;;;22.90;;
76818;SDS011;65772;51.096;17.006;2023-04-10T06:43:05;36.90;;;21.30;;
76818;SDS011;65772;51.096;17.006;2023-04-10T06:45:39;37.60;;;20.40;;
76818;SDS011;65772;51.096;17.006;2023-04-10T06:48:09;38.60;;;21.50;;
76818;SDS011;65772;51.096;17.006;2023-04-10T06:50:40;39.80;;;21.20;;
76818;SDS011;65772;51.096;17.006;2023-04-10T06:53:10;37.70;;;21.30;;
76818;SDS011;65772;51.096;17.006;2023-04-10T06:55:41;36.40;;;21.00;;
76818;SDS011;65772;51.096;17.006;2023-04-10T06:58:12;39.10;;;21.30;;
76818;SDS011;65772;51.096;17.006;2023-04-10T07:00:44;37.90;;;21.60;;
76818;SDS011;65772;51.096;17.006;2023-04-10T07:03:14;33.90;;;20.30;;
76818;SDS011;65772;51.096;17.006;2023-04-10T07:05:45;40.00;;;21.30;;
76818;SDS011;65772;51.096;17.006;2023-04-10T07:08:15;38.10;;;22.00;;
76818;SDS011;65772;51.096;17.006;2023-04-10T07:10:46;35.40;;;21.00;;
76818;SDS011;65772;51.096;17.006;2023-04-10T07:13:17;37.70;;;21.30;;
76818;SDS011;65772;51.096;17.006;2023-04-10T07:15:47;39.80;;;22.50;;
76818;SDS011;65772;51.096;17.006;2023-04-10T07:18:18;40.50;;;22.10;;
76818;SDS011;65772;51.096;17.006;2023-04-10T07:20:49;37.70;;;21.50;;
76818;SDS011;65772;51.096;17.006;2023-04-10T07:23:20;42.30;;;22.50;;
76818;SDS011;65772;51.096;17.006;2023-04-10T07:25:51;36.60;;;21.30;;
76818;SDS011;65772;51.096;17.006;2023-04-10T07:28:21;41.20;;;22.50;;
76818;SDS011;65772;51.096;17.006;2023-04-10T07:30:52;40.60;;;22.80;;
76818;SDS011;65772;51.096;17.006;2023-04-10T07:33:23;41.20;;;22.50;;
76818;SDS011;65772;51.096;17.006;2023-04-10T07:35:54;42.80;;;22.70;;
76818;SDS011;65772;51.096;17.006;2023-04-10T07:38:24;42.90;;;22.70;;
76818;SDS011;65772;51.096;17.006;2023-04-10T07:40:56;41.90;;;22.10;;
76818;SDS011;65772;51.096;17.006;2023-04-10T07:43:27;45.30;;;23.70;;
76818;SDS011;65772;51.096;17.006;2023-04-10T07:45:57;45.10;;;23.00;;
76818;SDS011;65772;51.096;17.006;2023-04-10T07:48:28;51.90;;;25.70;;
76818;SDS011;65772;51.096;17.006;2023-04-10T07:50:59;50.10;;;27.30;;
76818;SDS011;65772;51.096;17.006;2023-04-10T07:53:29;52.10;;;25.80;;
76818;SDS011;65772;51.096;17.006;2023-04-10T07:56:00;52.60;;;26.90;;
76818;SDS011;65772;51.096;17.006;2023-04-10T07:58:32;46.40;;;23.60;;
76818;SDS011;65772;51.096;17.006;2023-04-10T08:01:02;50.80;;;24.40;;
76818;SDS011;65772;51.096;17.006;2023-04-10T08:03:37;55.30;;;25.40;;
76818;SDS011;65772;51.096;17.006;2023-04-10T08:06:09;48.40;;;24.30;;
76818;SDS011;65772;51.096;17.006;2023-04-10T08:08:40;45.60;;;23.70;;
76818;SDS011;65772;51.096;17.006;2023-04-10T08:11:22;46.10;;;23.50;;
76818;SDS011;65772;51.096;17.006;2023-04-10T08:13:55;47.20;;;24.00;;
76818;SDS011;65772;51.096;17.006;2023-04-10T08:16:29;51.70;;;26.30;;
76818;SDS011;65772;51.096;17.006;2023-04-10T08:19:01;62.10;;;30.70;;
76818;SDS011;65772;51.096;17.006;2023-04-10T08:21:32;48.80;;;24.70;;
76818;SDS011;65772;51.096;17.006;2023-04-10T08:24:03;50.70;;;26.50;;
76818;SDS011;65772;51.096;17.006;2023-04-10T08:26:34;50.70;;;25.20;;
76818;SDS011;65772;51.096;17.006;2023-04-10T08:29:04;49.90;;;26.20;;
76818;SDS011;65772;51.096;17.006;2023-04-10T08:31:35;45.20;;;22.70;;
76818;SDS011;65772;51.096;17.006;2023-04-10T08:34:06;45.10;;;23.60;;
76818;SDS011;65772;51.096;17.006;2023-04-10T08:36:36;45.40;;;23.10;;
76818;SDS011;65772;51.096;17.006;2023-04-10T08:39:07;40.90;;;21.10;;
76818;SDS011;65772;51.096;17.006;2023-04-10T08:41:37;39.10;;;20.60;;
76818;SDS011;65772;51.096;17.006;2023-04-10T08:44:10;43.00;;;22.60;;
76818;SDS011;65772;51.096;17.006;2023-04-10T08:46:41;53.90;;;28.70;;
76818;SDS011;65772;51.096;17.006;2023-04-10T08:49:16;43.70;;;24.70;;
76818;SDS011;65772;51.096;17.006;2023-04-10T08:51:53;39.50;;;21.20;;
76818;SDS011;65772;51.096;17.006;2023-04-10T08:54:27;40.70;;;21.00;;
76818;SDS011;65772;51.096;17.006;2023-04-10T08:57:01;42.40;;;21.90;;
76818;SDS011;65772;51.096;17.006;2023-04-10T08:59:37;41.20;;;21.50;;
76818;SDS011;65772;51.096;17.006;2023-04-10T09:02:07;38.50;;;20.20;;
76818;SDS011;65772;51.096;17.006;2023-04-10T09:04:38;38.30;;;21.00;;
76818;SDS011;65772;51.096;17.006;2023-04-10T09:07:14;39.60;;;21.20;;
76818;SDS011;65772;51.096;17.006;2023-04-10T09:09:45;39.10;;;19.70;;
76818;SDS011;65772;51.096;17.006;2023-04-10T09:12:15;36.70;;;19.90;;
76818;SDS011;65772;51.096;17.006;2023-04-10T09:14:46;42.60;;;21.30;;
76818;SDS011;65772;51.096;17.006;2023-04-10T09:17:20;36.80;;;20.50;;
76818;SDS011;65772;51.096;17.006;2023-04-10T09:19:52;42.00;;;20.60;;
76818;SDS011;65772;51.096;17.006;2023-04-10T09:22:29;39.80;;;21.20;;
76818;SDS011;65772;51.096;17.006;2023-04-10T09:25:02;37.20;;;19.60;;
76818;SDS011;65772;51.096;17.006;2023-04-10T09:27:34;35.70;;;19.30;;
76818;SDS011;65772;51.096;17.006;2023-04-10T09:30:07;34.10;;;19.30;;
76818;SDS011;65772;51.096;17.006;2023-04-10T09:32:39;37.30;;;20.30;;
76818;SDS011;65772;51.096;17.006;2023-04-10T09:35:11;36.40;;;20.60;;
76818;SDS011;65772;51.096;17.006;2023-04-10T09:37:44;36.20;;;20.10;;
76818;SDS011;65772;51.096;17.006;2023-04-10T09:42:53;37.10;;;19.10;;
76818;SDS011;65772;51.096;17.006;2023-04-10T09:45:24;37.20;;;19.60;;
76818;SDS011;65772;51.096;17.006;2023-04-10T09:48:14;37.20;;;20.50;;
76818;SDS011;65772;51.096;17.006;2023-04-10T09:50:44;38.90;;;20.30;;
76818;SDS011;65772;51.096;17.006;2023-04-10T09:53:16;36.60;;;20.30;;
76818;SDS011;65772;51.096;17.006;2023-04-10T09:55:48;38.40;;;20.70;;
76818;SDS011;65772;51.096;17.006;2023-04-10T09:58:19;37.00;;;21.50;;
76818;SDS011;65772;51.096;17.006;2023-04-10T10:00:52;37.90;;;20.10;;
76818;SDS011;65772;51.096;17.006;2023-04-10T10:03:22;37.30;;;20.30;;
76818;SDS011;65772;51.096;17.006;2023-04-10T10:05:53;34.30;;;18.80;;
76818;SDS011;65772;51.096;17.006;2023-04-10T10:08:24;39.20;;;21.80;;
76818;SDS011;65772;51.096;17.006;2023-04-10T10:10:56;37.20;;;19.50;;
76818;SDS011;65772;51.096;17.006;2023-04-10T10:13:30;39.30;;;20.40;;
76818;SDS011;65772;51.096;17.006;2023-04-10T10:16:10;40.80;;;20.00;;
76818;SDS011;65772;51.096;17.006;2023-04-10T10:18:49;37.00;;;19.40;;
76818;SDS011;65772;51.096;17.006;2023-04-10T10:21:25;38.30;;;20.50;;
76818;SDS011;65772;51.096;17.006;2023-04-10T10:23:57;36.40;;;19.80;;
76818;SDS011;65772;51.096;17.006;2023-04-10T10:26:30;36.60;;;19.80;;
76818;SDS011;65772;51.096;17.006;2023-04-10T10:29:04;33.70;;;19.00;;
76818;SDS011;65772;51.096;17.006;2023-04-10T10:31:37;40.40;;;20.10;;
76818;SDS011;65772;51.096;17.006;2023-04-10T10:34:09;33.30;;;18.70;;
76818;SDS011;65772;51.096;17.006;2023-04-10T10:36:40;34.90;;;19.40;;
76818;SDS011;65772;51.096;17.006;2023-04-10T10:39:17;35.30;;;19.40;;
76818;SDS011;65772;51.096;17.006;2023-04-10T10:41:58;37.80;;;20.10;;
76818;SDS011;65772;51.096;17.006;2023-04-10T10:44:38;37.60;;;19.20;;
76818;SDS011;65772;51.096;17.006;2023-04-10T10:47:17;36.90;;;19.70;;
76818;SDS011;65772;51.096;17.006;2023-04-10T10:49:54;35.20;;;19.60;;
76818;SDS011;65772;51.096;17.006;2023-04-10T10:52:42;32.90;;;19.10;;
76818;SDS011;65772;51.096;17.006;2023-04-10T10:55:28;33.50;;;19.00;;
76818;SDS011;65772;51.096;17.006;2023-04-10T10:58:05;54.00;;;31.40;;
76818;SDS011;65772;51.096;17.006;2023-04-10T11:03:37;35.60;;;19.30;;
76818;SDS011;65772;51.096;17.006;2023-04-10T11:06:09;35.40;;;20.30;;
76818;SDS011;65772;51.096;17.006;2023-04-10T11:08:44;31.50;;;18.60;;
76818;SDS011;65772;51.096;17.006;2023-04-10T11:11:18;32.00;;;18.00;;
76818;SDS011;65772;51.096;17.006;2023-04-10T11:16:48;29.10;;;16.90;;
76818;SDS011;65772;51.096;17.006;2023-04-10T11:19:18;31.90;;;18.00;;
76818;SDS011;65772;51.096;17.006;2023-04-10T11:22:05;31.10;;;17.50;;
76818;SDS011;65772;51.096;17.006;2023-04-10T11:24:56;30.90;;;17.60;;
76818;SDS011;65772;51.096;17.006;2023-04-10T11:27:39;32.70;;;17.70;;
76818;SDS011;65772;51.096;17.006;2023-04-10T11:30:29;31.40;;;18.30;;
76818;SDS011;65772;51.096;17.006;2023-04-10T11:33:04;31.00;;;17.70;;
76818;SDS011;65772;51.096;17.006;2023-04-10T11:35:35;38.50;;;21.40;;
76818;SDS011;65772;51.096;17.006;2023-04-10T11:38:13;38.60;;;22.60;;
76818;SDS011;65772;51.096;17.006;2023-04-10T11:40:54;31.10;;;17.70;;
76818;SDS011;65772;51.096;17.006;2023-04-10T11:43:28;32.90;;;18.80;;
76818;SDS011;65772;51.096;17.006;2023-04-10T11:48:31;30.70;;;17.40;;
76818;SDS011;65772;51.096;17.006;2023-04-10T11:51:08;28.90;;;17.00;;
76818;SDS011;65772;51.096;17.006;2023-04-10T11:53:40;33.10;;;17.60;;
76818;SDS011;65772;51.096;17.006;2023-04-10T11:56:18;29.60;;;17.70;;
76818;SDS011;65772;51.096;17.006;2023-04-10T11:58:50;32.00;;;19.30;;
76818;SDS011;65772;51.096;17.006;2023-04-10T12:01:22;30.10;;;17.70;;
76818;SDS011;65772;51.096;17.006;2023-04-10T12:03:52;32.20;;;18.10;;
76818;SDS011;65772;51.096;17.006;2023-04-10T12:06:23;30.30;;;16.90;;
76818;SDS011;65772;51.096;17.006;2023-04-10T12:08:54;30.50;;;17.40;;
76818;SDS011;65772;51.096;17.006;2023-04-10T12:11:25;32.40;;;18.20;;
76818;SDS011;65772;51.096;17.006;2023-04-10T12:13:56;29.80;;;18.30;;
76818;SDS011;65772;51.096;17.006;2023-04-10T12:16:27;30.70;;;17.50;;
76818;SDS011;65772;51.096;17.006;2023-04-10T12:18:59;29.30;;;16.30;;
76818;SDS011;65772;51.096;17.006;2023-04-10T12:21:31;30.10;;;17.50;;
76818;SDS011;65772;51.096;17.006;2023-04-10T12:24:03;35.50;;;18.00;;
76818;SDS011;65772;51.096;17.006;2023-04-10T12:26:34;32.90;;;17.80;;
76818;SDS011;65772;51.096;17.006;2023-04-10T12:29:05;31.80;;;18.10;;
76818;SDS011;65772;51.096;17.006;2023-04-10T12:31:36;31.30;;;17.40;;
76818;SDS011;65772;51.096;17.006;2023-04-10T12:34:07;31.20;;;18.20;;
76818;SDS011;65772;51.096;17.006;2023-04-10T12:36:38;41.40;;;21.20;;
76818;SDS011;65772;51.096;17.006;2023-04-10T12:39:20;33.00;;;18.00;;
76818;SDS011;65772;51.096;17.006;2023-04-10T12:41:52;33.50;;;18.30;;
76818;SDS011;65772;51.096;17.006;2023-04-10T12:44:49;28.50;;;16.30;;
76818;SDS011;65772;51.096;17.006;2023-04-10T12:47:21;28.70;;;16.50;;
76818;SDS011;65772;51.096;17.006;2023-04-10T12:50:08;29.10;;;16.60;;
76818;SDS011;65772;51.096;17.006;2023-04-10T12:52:41;28.60;;;16.60;;
76818;SDS011;65772;51.096;17.006;2023-04-10T12:55:13;29.10;;;17.80;;
76818;SDS011;65772;51.096;17.006;2023-04-10T12:57:46;31.70;;;17.90;;
76818;SDS011;65772;51.096;17.006;2023-04-10T13:00:18;30.80;;;17.70;;
76818;SDS011;65772;51.096;17.006;2023-04-10T13:02:49;28.90;;;17.10;;
76818;SDS011;65772;51.096;17.006;2023-04-10T13:05:20;27.20;;;17.00;;
76818;SDS011;65772;51.096;17.006;2023-04-10T13:07:51;28.90;;;17.10;;
76818;SDS011;65772;51.096;17.006;2023-04-10T13:10:22;25.20;;;16.00;;
76818;SDS011;65772;51.096;17.006;2023-04-10T13:12:53;28.20;;;16.40;;
76818;SDS011;65772;51.096;17.006;2023-04-10T13:15:23;31.80;;;19.50;;
76818;SDS011;65772;51.096;17.006;2023-04-10T13:17:54;27.20;;;16.20;;
76818;SDS011;65772;51.096;17.006;2023-04-10T13:20:24;28.10;;;15.80;;
76818;SDS011;65772;51.096;17.006;2023-04-10T13:22:55;25.10;;;14.10;;
76818;SDS011;65772;51.096;17.006;2023-04-10T13:25:25;23.70;;;14.60;;
76818;SDS011;65772;51.096;17.006;2023-04-10T13:27:56;26.80;;;15.70;;
76818;SDS011;65772;51.096;17.006;2023-04-10T13:30:27;21.40;;;14.10;;
76818;SDS011;65772;51.096;17.006;2023-04-10T13:32:57;22.40;;;13.20;;
76818;SDS011;65772;51.096;17.006;2023-04-10T13:35:28;25.40;;;15.40;;
76818;SDS011;65772;51.096;17.006;2023-04-10T13:37:59;24.10;;;14.80;;
76818;SDS011;65772;51.096;17.006;2023-04-10T13:40:30;26.80;;;15.20;;
76818;SDS011;65772;51.096;17.006;2023-04-10T13:43:01;23.20;;;14.60;;
76818;SDS011;65772;51.096;17.006;2023-04-10T13:45:33;23.80;;;13.50;;
76818;SDS011;65772;51.096;17.006;2023-04-10T13:48:03;23.20;;;12.80;;
76818;SDS011;65772;51.096;17.006;2023-04-10T13:50:34;19.50;;;12.20;;
76818;SDS011;65772;51.096;17.006;2023-04-10T13:53:05;20.00;;;11.90;;
76818;SDS011;65772;51.096;17.006;2023-04-10T13:55:36;17.60;;;11.20;;
76818;SDS011;65772;51.096;17.006;2023-04-10T13:58:10;15.50;;;9.90;;
76818;SDS011;65772;51.096;17.006;2023-04-10T14:00:42;18.00;;;10.60;;
76818;SDS011;65772;51.096;17.006;2023-04-10T14:03:13;16.30;;;10.00;;
76818;SDS011;65772;51.096;17.006;2023-04-10T14:05:44;14.50;;;9.20;;
76818;SDS011;65772;51.096;17.006;2023-04-10T14:08:14;15.30;;;8.90;;
76818;SDS011;65772;51.096;17.006;2023-04-10T14:10:46;15.20;;;9.70;;
76818;SDS011;65772;51.096;17.006;2023-04-10T14:13:17;15.70;;;9.30;;
76818;SDS011;65772;51.096;17.006;2023-04-10T14:15:48;15.30;;;10.10;;
76818;SDS011;65772;51.096;17.006;2023-04-10T14:18:20;16.60;;;10.10;;
76818;SDS011;65772;51.096;17.006;2023-04-10T14:20:50;16.20;;;9.90;;
76818;SDS011;65772;51.096;17.006;2023-04-10T14:23:21;15.10;;;9.10;;
76818;SDS011;65772;51.096;17.006;2023-04-10T14:25:51;16.70;;;10.50;;
76818;SDS011;65772;51.096;17.006;2023-04-10T14:28:22;16.20;;;10.60;;
76818;SDS011;65772;51.096;17.006;2023-04-10T14:30:52;28.70;;;18.20;;
76818;SDS011;65772;51.096;17.006;2023-04-10T14:33:23;19.50;;;12.90;;
76818;SDS011;65772;51.096;17.006;2023-04-10T14:35:53;16.70;;;10.90;;
76818;SDS011;65772;51.096;17.006;2023-04-10T14:38:24;17.30;;;11.10;;
76818;SDS011;65772;51.096;17.006;2023-04-10T14:40:54;18.90;;;11.40;;
76818;SDS011;65772;51.096;17.006;2023-04-10T14:43:25;16.90;;;10.60;;
76818;SDS011;65772;51.096;17.006;2023-04-10T14:45:55;16.30;;;10.60;;
76818;SDS011;65772;51.096;17.006;2023-04-10T14:48:26;14.20;;;8.60;;
76818;SDS011;65772;51.096;17.006;2023-04-10T14:50:56;16.60;;;9.80;;
76818;SDS011;65772;51.096;17.006;2023-04-10T14:53:28;18.70;;;11.30;;
76818;SDS011;65772;51.096;17.006;2023-04-10T14:55:58;16.10;;;9.50;;
76818;SDS011;65772;51.096;17.006;2023-04-10T14:58:29;16.70;;;10.40;;
76818;SDS011;65772;51.096;17.006;2023-04-10T15:00:59;17.20;;;11.20;;
76818;SDS011;65772;51.096;17.006;2023-04-10T15:03:30;16.00;;;10.20;;
76818;SDS011;65772;51.096;17.006;2023-04-10T15:06:00;16.10;;;10.20;;
76818;SDS011;65772;51.096;17.006;2023-04-10T15:08:31;16.30;;;10.10;;